Terminal Aerodrome Forecast
Issued by NWS Portland, OR

Home | Current Version | Previous Version | Text Only | Print | Product List | Glossary On
Versions: 1 2 3 4 5 6 7 8 9 10 11 12 13 14 15 16 17 18 19 20 21 22 23 24 25 26 27 28 29 30 31 32 33 34 35 36 37 38 39 40 41 42
000
FTUS46 KPQR 300524
TAFHIO
TAF
KHIO 300524Z 3006/0106 28005KT P6SM VCSH SCT025 BKN070
     FM301200 00000KT 4SM -SHRA BR SCT009 OVC015
     FM301900 29005KT P6SM BKN050
     FM010200 31006KT P6SM BKN050=

USA.gov is the U.S. government's official web portal to all federal, state and local government web resources and services.